Portada
METAR-TAF:

METAR-TAF

Aeroports :

Castlegar, Colúmbia Britànica, Canadà

latitud: 49-18N, longitud: 117-38W, altitud: 495 m

Observació

L'informe es va fer fa 36 minuts, a les 01:00 UTC
Vent 2 kt amb direcció variable
Temperatura 28°C
Humitat 25%
Pressió 1016 hPa
Visibilitat: 24.1 km
Escasses núvols a una alçada de 11000 ft
Núvols disperses a una alçada de 22000 ft

METAR: CYCG 150100Z VRB02KT 15SM FEW110 SCT220 28/06 A2999 RMK AC1CI3 CONTRAILS SLP157 DENSITY ALT 3400FT

Hora: 18:36 (01:36 UTC)

Pronòstic

L'informe es va fer fa 58 minuts, a les 00:38 UTC
Pronòstic vàlid del 15 a les 01 UTC al 15 a les 04 UTC
Vent 8 kt del Sud
Visibilitat: 10 km
Escasses núvols a una alçada de 13000 ft
Núvols disperses a una alçada de 22000 ft
Evolucionant progressivament
l' 15 a les 02 UTC al 15 a les 04 UTC
Vent 3 kt amb direcció variable

TAF: CYCG 150038Z 1501/1504 19008KT P6SM FEW130 SCT220 BECMG 1502/1504 VRB03KT RMK NXT FCST WILL BE ISSUED AT 151445Z

Observacions i pronòstics meteorològics de més de 4000 aeroports (METAR i TAF).

Les estacions disponibles són els punts grocs i vermells al mapa.

Posi el ratolí al punt desitjat per veure el nom de l'estació.

Feu clic per veure les observacions i els pronòstics meteorològics.

Per canviar el mapa: feu clic els botons verds amb una creu de color negre per apropar; al botó verd amb un guió per allunyar la imatge; o en les fletxes verdes per a mapes adjacents.


METAR-TAF: